createdAt,value
2023-03-05T00:04:34.913Z,99902.63
2023-03-05T00:09:36.505Z,99903.50
2023-03-05T00:14:38.263Z,99904.38
2023-03-05T00:19:40.014Z,99904.34
2023-03-05T00:24:41.766Z,99901.75
2023-03-05T00:29:43.475Z,99898.31
2023-03-05T00:34:45.187Z,99894.84
2023-03-05T00:39:46.813Z,99884.47
2023-03-05T00:44:48.405Z,99876.69
2023-03-05T00:49:50.316Z,99865.47
2023-03-05T00:54:51.957Z,99863.72
2023-03-05T00:59:53.652Z,99856.84
2023-03-05T01:04:55.707Z,99863.72
2023-03-05T01:09:57.393Z,99855.09
2023-03-05T01:14:59.144Z,99855.09
2023-03-05T01:20:00.779Z,99844.72
2023-03-05T01:25:02.582Z,99842.13
2023-03-05T01:30:05.205Z,99840.41
2023-03-05T01:35:08.478Z,99835.22
2023-03-05T01:40:12.344Z,99824.84
2023-03-05T01:45:17.155Z,99822.25
2023-03-05T01:50:22.998Z,99820.50
2023-03-05T01:55:26.780Z,99825.69
2023-03-05T02:00:35.684Z,99819.63
2023-03-05T02:05:41.102Z,99817.06
2023-03-05T02:10:46.051Z,99817.06
2023-03-05T02:15:49.865Z,99809.31
2023-03-05T02:20:56.336Z,99806.72
2023-03-05T02:25:58.086Z,99801.53
2023-03-05T02:30:59.843Z,99795.47
2023-03-05T02:36:01.503Z,99786.84
2023-03-05T02:41:03.524Z,99779.94
2023-03-05T02:46:05.848Z,99773.03
2023-03-05T02:51:08.590Z,99777.34
2023-03-05T02:56:11.016Z,99778.19
2023-03-05T03:01:12.845Z,99780.78
2023-03-05T03:06:14.607Z,99777.31
2023-03-05T03:11:16.269Z,99772.97
2023-03-05T03:16:18.124Z,99779.06
2023-03-05T03:21:22.260Z,99772.13
2023-03-05T03:26:24.040Z,99770.41
2023-03-05T03:31:25.770Z,99769.53
2023-03-05T03:36:27.371Z,99776.44
2023-03-05T03:41:29.028Z,99760.94
2023-03-05T03:46:31.086Z,99751.41
2023-03-05T03:51:33.105Z,99748.84
2023-03-05T03:56:34.717Z,99745.38
2023-03-05T04:01:36.737Z,99741.06
2023-03-05T04:06:38.974Z,99749.69
2023-03-05T04:11:40.681Z,99735.00
2023-03-05T04:16:42.352Z,99730.69
2023-03-05T04:21:44.027Z,99731.53
2023-03-05T04:26:45.688Z,99728.13
2023-03-05T04:31:47.360Z,99724.66
2023-03-05T04:36:49.051Z,99718.63
2023-03-05T04:41:50.695Z,99715.13
2023-03-05T04:46:52.684Z,99707.38
2023-03-05T04:51:54.493Z,99702.22
2023-03-05T04:56:56.092Z,99711.69
2023-03-05T05:01:57.974Z,99704.78
2023-03-05T05:06:59.706Z,99703.94
2023-03-05T05:12:01.580Z,99698.72
2023-03-05T05:17:05.187Z,99699.59
2023-03-05T05:22:07.639Z,99702.19
2023-03-05T05:27:09.328Z,99704.78
2023-03-05T05:32:11.049Z,99694.41
2023-03-05T05:37:12.850Z,99684.94
2023-03-05T05:42:14.609Z,99690.13
2023-03-05T05:47:18.098Z,99686.66
2023-03-05T05:52:19.735Z,99695.28
2023-03-05T05:57:21.436Z,99695.31
2023-03-05T06:02:23.384Z,99697.03
2023-03-05T06:07:25.948Z,99697.03
2023-03-05T06:12:28.265Z,99680.63
2023-03-05T06:17:31.043Z,99681.50
2023-03-05T06:22:37.394Z,99689.25
2023-03-05T06:27:39.384Z,99678.03
2023-03-05T06:32:41.252Z,99681.53
2023-03-05T06:37:43.208Z,99684.94
2023-03-05T06:42:45.172Z,99691.88
2023-03-05T06:47:46.948Z,99674.59
2023-03-05T06:52:51.782Z,99682.34
2023-03-05T06:57:53.568Z,99688.41
2023-03-05T07:02:55.301Z,99681.50
2023-03-05T07:07:57.042Z,99684.09
2023-03-05T07:12:59.038Z,99675.44
2023-03-05T07:18:01.185Z,99678.94
2023-03-05T07:23:04.274Z,99668.56
2023-03-05T07:28:07.130Z,99665.09
2023-03-05T07:33:08.999Z,99670.28
2023-03-05T07:38:10.801Z,99674.59
2023-03-05T07:43:12.611Z,99667.69
2023-03-05T07:48:17.510Z,99669.41
2023-03-05T07:53:19.354Z,99669.41
2023-03-05T07:58:21.131Z,99671.13
2023-03-05T08:03:22.885Z,99660.75
2023-03-05T08:08:24.618Z,99655.56
2023-03-05T08:13:26.405Z,99653.00
2023-03-05T08:18:28.595Z,99652.13
2023-03-05T08:23:30.820Z,99634.00
2023-03-05T08:28:34.389Z,99639.97
2023-03-05T08:33:37.133Z,99633.06
2023-03-05T08:38:39.599Z,99637.31
2023-03-05T08:43:41.739Z,99637.22
2023-03-05T08:48:43.919Z,99636.13
2023-03-05T08:53:46.775Z,99621.50
2023-03-05T08:58:48.661Z,99632.88
2023-03-05T09:03:50.620Z,99630.44
2023-03-05T09:08:52.760Z,99627.03
2023-03-05T09:13:54.700Z,99614.97
2023-03-05T09:18:56.719Z,99612.34
2023-03-05T09:24:00.629Z,99615.84
2023-03-05T09:29:02.578Z,99611.53
2023-03-05T09:34:05.548Z,99609.78
2023-03-05T09:39:07.407Z,99600.22
2023-03-05T09:44:14.949Z,99593.19
2023-03-05T09:50:01.448Z,99590.50
2023-03-05T09:55:05.125Z,99578.19
2023-03-05T10:00:21.142Z,99572.69
2023-03-05T10:05:31.403Z,99559.50
2023-03-05T10:10:40.946Z,99570.50
2023-03-05T10:16:13.513Z,99562.25
2023-03-05T10:21:45.478Z,99562.72
2023-03-05T10:27:02.694Z,99561.47
2023-03-05T10:32:20.632Z,99554.28
2023-03-05T10:37:48.794Z,99535.59
2023-03-05T10:43:02.246Z,99540.16
2023-03-05T10:48:25.488Z,99538.78
2023-03-05T10:53:34.087Z,99533.84
2023-03-05T10:58:35.916Z,99534.13
2023-03-05T11:03:59.360Z,99519.53
2023-03-05T11:09:32.493Z,99519.66
2023-03-05T11:14:38.671Z,99522.19
2023-03-05T11:19:40.571Z,99519.53
2023-03-05T11:24:43.453Z,99513.75
2023-03-05T11:29:49.404Z,99508.47
2023-03-05T11:34:51.483Z,99505.16
2023-03-05T11:40:27.842Z,99482.75
2023-03-05T11:45:31.937Z,99488.63
2023-03-05T11:50:35.225Z,99485.41
2023-03-05T11:55:45.295Z,99474.09
2023-03-05T12:01:22.256Z,99461.97
2023-03-05T12:06:36.120Z,99449.22
2023-03-05T12:11:38.584Z,99453.25
2023-03-05T12:16:56.832Z,99449.84
2023-03-05T12:21:59.563Z,99434.94
2023-03-05T12:27:03.976Z,99425.28
2023-03-05T12:32:26.013Z,99405.22
2023-03-05T12:37:28.017Z,99413.88
2023-03-05T12:42:30.417Z,99403.63
2023-03-05T12:47:32.577Z,99402.09
2023-03-05T12:52:34.871Z,99396.16
2023-03-05T12:57:37.708Z,99410.13
2023-03-05T13:02:47.555Z,99395.34
2023-03-05T13:07:51.191Z,99385.63
2023-03-05T13:12:56.085Z,99384.59
2023-03-05T13:18:02.280Z,99377.44
2023-03-05T13:23:05.404Z,99374.19
2023-03-05T13:28:13.958Z,99365.63
2023-03-05T13:33:20.016Z,99358.53
2023-03-05T13:38:45.331Z,99358.69
2023-03-05T13:43:57.056Z,99350.88
2023-03-05T13:49:24.162Z,99343.16
2023-03-05T13:54:27.287Z,99332.72
2023-03-05T13:59:31.858Z,99316.19
2023-03-05T14:04:41.591Z,99310.38
2023-03-05T14:09:47.788Z,99315.00
2023-03-05T14:14:50.041Z,99316.78
2023-03-05T14:19:52.460Z,99344.19
2023-03-05T14:24:55.049Z,99339.88
2023-03-05T14:29:57.931Z,99337.31
2023-03-05T14:35:02.365Z,99321.94
2023-03-05T14:40:22.411Z,99325.22
2023-03-05T14:45:27.670Z,99324.44
2023-03-05T14:50:39.224Z,99327.06
2023-03-05T14:55:43.737Z,99327.88
2023-03-05T15:00:46.129Z,99319.16
2023-03-05T15:05:54.183Z,99324.63
2023-03-05T15:10:56.925Z,99316.13
2023-03-05T15:15:59.132Z,99312.59
2023-03-05T15:21:02.443Z,99304.69
2023-03-05T15:26:07.357Z,99296.97
2023-03-05T15:31:09.784Z,99295.13
2023-03-05T15:36:11.585Z,99293.31
2023-03-05T15:41:13.535Z,99298.47
2023-03-05T15:46:15.269Z,99296.69
2023-03-05T15:51:17.774Z,99287.00
2023-03-05T15:56:19.797Z,99287.19
2023-03-05T16:01:23.452Z,99274.13
2023-03-05T16:06:26.018Z,99278.56
2023-03-05T16:11:28.664Z,99276.88
2023-03-05T16:16:32.276Z,99272.63
2023-03-05T16:21:34.213Z,99273.22
2023-03-05T16:26:38.036Z,99266.31
2023-03-05T16:31:41.479Z,99262.22
2023-03-05T16:36:52.660Z,99258.53
2023-03-05T16:41:54.489Z,99260.34
2023-03-05T16:46:56.666Z,99255.19
2023-03-05T16:52:01.323Z,99262.03
2023-03-05T16:57:09.021Z,99260.31
2023-03-05T17:02:13.273Z,99255.19
2023-03-05T17:07:15.080Z,99264.63
2023-03-05T17:12:16.950Z,99268.03
2023-03-05T17:17:18.801Z,99264.28
2023-03-05T17:22:22.313Z,99268.78
2023-03-05T17:27:23.984Z,99270.63
2023-03-05T17:32:26.111Z,99265.34
2023-03-05T17:37:28.034Z,99266.22
2023-03-05T17:42:29.730Z,99258.56
2023-03-05T17:47:34.817Z,99276.09
2023-03-05T17:52:41.184Z,99267.66
2023-03-05T17:57:47.430Z,99268.28
2023-03-05T18:02:49.661Z,99265.63
2023-03-05T18:07:52.164Z,99263.81
2023-03-05T18:12:54.287Z,99268.03
2023-03-05T18:17:56.444Z,99269.13
2023-03-05T18:23:00.343Z,99270.72
2023-03-05T18:28:07.558Z,99265.63
2023-03-05T18:33:13.393Z,99264.91
2023-03-05T18:38:15.424Z,99269.44
2023-03-05T18:43:20.520Z,99268.31
2023-03-05T18:48:22.950Z,99266.91
2023-03-05T18:53:24.737Z,99261.91
2023-03-05T18:58:26.416Z,99265.38
2023-03-05T19:03:28.077Z,99278.25
2023-03-05T19:08:29.692Z,99261.09
2023-03-05T19:13:35.084Z,99261.94
2023-03-05T19:18:43.835Z,99255.03
2023-03-05T19:23:49.689Z,99250.72
2023-03-05T19:28:51.558Z,99255.63
2023-03-05T19:33:54.527Z,99261.75
2023-03-05T19:38:56.296Z,99255.66
2023-03-05T19:43:58.088Z,99236.00
2023-03-05T19:48:59.986Z,99234.97
2023-03-05T19:54:04.057Z,99224.47
2023-03-05T19:59:06.378Z,99226.28
2023-03-05T20:04:08.143Z,99225.50
2023-03-05T20:09:10.638Z,99220.44
2023-03-05T20:14:19.458Z,99214.06
2023-03-05T20:19:21.909Z,99211.66
2023-03-05T20:24:23.588Z,99203.88
2023-03-05T20:29:25.500Z,99190.00
2023-03-05T20:34:27.247Z,99190.97
2023-03-05T20:39:28.963Z,99178.94
2023-03-05T20:44:30.652Z,99174.59
2023-03-05T20:49:32.330Z,99173.03
2023-03-05T20:54:34.022Z,99160.91
2023-03-05T20:59:36.807Z,99157.13
2023-03-05T21:04:38.469Z,99140.06
2023-03-05T21:09:40.694Z,99147.94
2023-03-05T21:14:42.334Z,99146.84
2023-03-05T21:19:44.081Z,99145.03
2023-03-05T21:25:06.028Z,99139.66
2023-03-05T21:30:09.656Z,99126.91
2023-03-05T21:35:22.727Z,99122.53
2023-03-05T21:40:25.140Z,99111.94
2023-03-05T21:45:28.794Z,99098.09
2023-03-05T21:50:33.334Z,99096.47
2023-03-05T21:55:46.316Z,99087.88
2023-03-05T22:00:48.068Z,99080.09
2023-03-05T22:05:49.751Z,99082.72
2023-03-05T22:10:52.117Z,99079.25
2023-03-05T22:15:55.834Z,99087.72
2023-03-05T22:20:59.483Z,99072.19
2023-03-05T22:26:04.834Z,99073.88
2023-03-05T22:31:06.567Z,99063.56
2023-03-05T22:36:10.771Z,99061.00
2023-03-05T22:41:14.886Z,99061.78
2023-03-05T22:46:22.534Z,99058.50
2023-03-05T22:51:24.708Z,99055.78
2023-03-05T22:56:26.525Z,99060.06
2023-03-05T23:01:28.174Z,99063.66
2023-03-05T23:06:29.846Z,99061.81
2023-03-05T23:11:31.540Z,99053.19
2023-03-05T23:16:33.154Z,99046.25
2023-03-05T23:21:34.809Z,99056.66
2023-03-05T23:26:36.481Z,99047.06
2023-03-05T23:31:38.200Z,99048.84
2023-03-05T23:36:39.857Z,99041.88
2023-03-05T23:41:41.463Z,99047.16
2023-03-05T23:46:43.153Z,99046.28
2023-03-05T23:51:44.847Z,99038.53
2023-03-05T23:56:46.539Z,99037.81
